createdAt,value
2023-01-07T03:04:11.887Z,7.59
2023-01-07T03:09:29.068Z,7.59
2023-01-07T05:54:06.630Z,8.11
2023-01-07T06:00:07.224Z,7.92
2023-01-07T07:57:28.130Z,11.33
2023-01-07T08:16:22.158Z,11.46
2023-01-07T08:21:47.040Z,11.51
2023-01-07T08:51:51.546Z,12.32
2023-01-07T09:35:44.907Z,13.52
2023-01-07T09:52:26.002Z,13.55
2023-01-07T09:57:51.612Z,13.69
2023-01-07T10:04:00.074Z,13.82
2023-01-07T10:09:33.603Z,13.75
2023-01-07T10:27:01.907Z,14.18
2023-01-07T10:32:26.413Z,14.16
2023-01-07T10:38:15.385Z,14.16
2023-01-07T10:45:03.945Z,14.53
2023-01-07T11:37:55.754Z,14.34
2023-01-07T11:43:47.626Z,14.38
2023-01-07T12:21:16.969Z,14.43
2023-01-07T12:33:57.902Z,14.60
2023-01-07T12:39:12.546Z,14.68
2023-01-07T12:44:45.650Z,14.50
2023-01-07T12:57:32.825Z,14.66
2023-01-07T13:02:53.040Z,14.56
2023-01-07T13:08:23.823Z,14.75
2023-01-07T13:15:00.371Z,14.76
2023-01-07T13:20:21.956Z,14.86
2023-01-07T13:32:34.176Z,14.72
2023-01-07T13:38:15.049Z,14.61
2023-01-07T13:43:46.039Z,14.37
2023-01-07T13:49:41.058Z,14.43
2023-01-07T13:55:59.211Z,14.42
2023-01-07T14:01:09.467Z,14.42
2023-01-07T14:06:44.448Z,14.34
2023-01-07T14:12:41.654Z,14.36
2023-01-07T14:18:00.039Z,14.29
2023-01-07T14:23:19.357Z,14.21
2023-01-07T14:28:54.651Z,14.14
2023-01-07T14:34:05.036Z,14.11
2023-01-07T14:39:37.154Z,14.11
2023-01-07T14:45:46.844Z,14.03
2023-01-07T14:51:49.820Z,13.99
2023-01-07T14:57:25.526Z,14.02
2023-01-07T15:03:12.757Z,14.08
2023-01-07T15:08:55.525Z,14.04
2023-01-07T15:14:49.741Z,14.06
2023-01-07T15:20:15.997Z,14.17
2023-01-07T15:26:06.145Z,14.19
2023-01-07T15:37:27.307Z,14.12
2023-01-07T15:42:47.019Z,14.18
2023-01-07T15:48:15.434Z,14.15
2023-01-07T15:53:22.435Z,14.07
2023-01-07T15:58:41.635Z,14.02
2023-01-07T16:04:04.951Z,14.02
2023-01-07T16:09:24.198Z,14.01
2023-01-07T16:14:55.461Z,14.01
2023-01-07T16:20:31.777Z,13.95
2023-01-07T16:25:55.417Z,13.96
2023-01-07T16:31:09.581Z,13.94
2023-01-07T16:36:31.467Z,13.87
2023-01-07T16:41:50.832Z,13.77
2023-01-07T16:47:20.813Z,13.59
2023-01-07T16:53:23.006Z,13.53
2023-01-07T16:58:16.433Z,13.48
2023-01-07T17:03:26.826Z,13.35
2023-01-07T17:08:37.174Z,13.34
2023-01-07T17:13:46.199Z,13.22
2023-01-07T17:19:05.662Z,13.14
2023-01-07T17:24:50.541Z,13.03
2023-01-07T17:29:56.930Z,12.98
2023-01-07T17:35:07.144Z,12.91
2023-01-07T17:40:32.474Z,12.87
2023-01-07T17:45:36.701Z,12.81
2023-01-07T17:50:51.861Z,12.82
2023-01-07T17:55:57.036Z,12.80
2023-01-07T18:01:12.278Z,12.89
2023-01-07T18:39:11.160Z,12.54
2023-01-07T18:44:16.354Z,12.38
2023-01-07T18:49:30.888Z,12.32
2023-01-07T18:54:46.901Z,12.38
2023-01-07T18:59:53.374Z,12.55
2023-01-07T19:05:00.742Z,12.53
2023-01-07T19:16:27.702Z,12.57
2023-01-07T19:21:49.116Z,12.57
2023-01-07T19:26:55.339Z,12.61
2023-01-07T19:32:10.761Z,12.53
2023-01-07T19:37:24.573Z,12.53
2023-01-07T19:42:30.166Z,12.57
2023-01-07T19:47:53.285Z,12.45
2023-01-07T19:53:13.591Z,12.52
2023-01-07T19:58:25.170Z,12.43
2023-01-07T20:04:01.833Z,12.48
2023-01-07T20:09:19.951Z,12.47
2023-01-07T20:14:42.200Z,12.49
2023-01-07T20:20:26.949Z,12.44
2023-01-07T20:31:46.086Z,12.47
2023-01-07T20:37:39.500Z,12.46
2023-01-07T20:43:34.078Z,12.50
2023-01-07T20:49:12.070Z,12.41
2023-01-07T20:54:26.044Z,12.44
2023-01-07T20:59:45.010Z,12.46
2023-01-07T21:11:05.543Z,12.47
2023-01-07T21:16:27.052Z,12.42
2023-01-07T21:21:45.763Z,12.40
2023-01-07T21:26:55.617Z,12.34
2023-01-07T21:32:04.624Z,12.36
2023-01-07T21:37:11.823Z,12.23
2023-01-07T21:42:20.087Z,12.25
2023-01-07T21:47:27.255Z,12.23
2023-01-07T21:53:06.296Z,12.14
2023-01-07T21:58:14.912Z,12.06
2023-01-07T22:03:33.964Z,12.05
2023-01-07T22:08:47.289Z,12.05
2023-01-07T22:14:04.542Z,12.03
2023-01-07T22:19:11.162Z,12.03
2023-01-07T22:24:52.222Z,12.17
2023-01-07T22:30:10.871Z,12.24
2023-01-07T22:35:16.448Z,12.29
2023-01-07T22:40:25.595Z,12.23
2023-01-07T22:45:43.551Z,12.25
2023-01-07T22:50:49.059Z,12.23
2023-01-07T22:55:56.240Z,12.28
2023-01-07T23:01:15.576Z,12.23
2023-01-07T23:06:20.717Z,12.33
2023-01-07T23:12:01.236Z,12.34
2023-01-07T23:23:11.020Z,12.43
2023-01-07T23:28:24.971Z,12.46
2023-01-07T23:33:33.034Z,12.34
2023-01-07T23:38:44.165Z,12.31
2023-01-07T23:44:22.584Z,12.20
2023-01-07T23:49:53.894Z,12.20
2023-01-07T23:55:25.216Z,12.19
